Flint Hill, Virginia
Current Conditions -  °F | °C
As of 3:15 AM on Monday 26 Jan 2015 (Local Time) from KFRR Reporting Station
Overcast Overcast  
Wind Chill: 32°   Ceiling: 7000
Heat Index: 36°   Visibility: 7mi
Dew Point: 34°   Wind: 5mph
Humidity: 93%   Direction: 350°N
Pressure: 29.75"   Gusts: NA
Location:  38.76°N, 78.1°W
Report Text: KFRR 260815Z AUTO 35004KT 7SM BKN070 OVC085 02/01 A2975 RMK AO1
Loading
Personal Weather Stations






























Interactive Weather Map New forecast layout! Learn more

10-Day Weather Forecast

Advertisements
Track Severe Weather on mobile